sensor_id;sensor_type;location;lat;lon;timestamp;pressure;altitude;pressure_sealevel;temperature;humidity
8047;BME280;74083;42.516;23.358;2023-12-22T00:00:23;86856.56;;;5.12;56.74
8047;BME280;74083;42.516;23.358;2023-12-22T00:03:10;86853.97;;;5.13;56.77
8047;BME280;74083;42.516;23.358;2023-12-22T00:05:55;86848.03;;;5.14;56.64
8047;BME280;74083;42.516;23.358;2023-12-22T00:08:41;86842.72;;;5.19;56.34
8047;BME280;74083;42.516;23.358;2023-12-22T00:11:27;86840.31;;;5.17;56.36
8047;BME280;74083;42.516;23.358;2023-12-22T00:14:12;86847.03;;;5.17;55.86
8047;BME280;74083;42.516;23.358;2023-12-22T00:16:58;86847.94;;;5.16;55.84
8047;BME280;74083;42.516;23.358;2023-12-22T00:19:45;86857.78;;;5.17;55.61
8047;BME280;74083;42.516;23.358;2023-12-22T00:22:31;86856.88;;;5.18;55.37
8047;BME280;74083;42.516;23.358;2023-12-22T00:25:17;86865.41;;;5.16;55.71
8047;BME280;74083;42.516;23.358;2023-12-22T00:28:02;86857.50;;;5.11;55.54
8047;BME280;74083;42.516;23.358;2023-12-22T00:30:48;86857.50;;;5.11;55.38
8047;BME280;74083;42.516;23.358;2023-12-22T00:33:34;86871.44;;;5.13;55.83
8047;BME280;74083;42.516;23.358;2023-12-22T00:36:21;86869.84;;;5.12;55.14
8047;BME280;74083;42.516;23.358;2023-12-22T00:39:08;86867.09;;;5.15;55.25
8047;BME280;74083;42.516;23.358;2023-12-22T00:41:53;86861.22;;;5.16;55.18
8047;BME280;74083;42.516;23.358;2023-12-22T00:44:39;86880.38;;;5.16;55.24
8047;BME280;74083;42.516;23.358;2023-12-22T00:47:25;86861.22;;;5.16;54.70
8047;BME280;74083;42.516;23.358;2023-12-22T00:50:11;86873.94;;;5.13;55.09
8047;BME280;74083;42.516;23.358;2023-12-22T00:52:58;86869.84;;;5.12;55.21
8047;BME280;74083;42.516;23.358;2023-12-22T00:55:44;86864.63;;;5.15;55.30
8047;BME280;74083;42.516;23.358;2023-12-22T00:58:30;86852.38;;;5.12;55.50
8047;BME280;74083;42.516;23.358;2023-12-22T01:01:15;86854.88;;;5.12;55.51
8047;BME280;74083;42.516;23.358;2023-12-22T01:04:01;86851.94;;;5.07;55.33
8047;BME280;74083;42.516;23.358;2023-12-22T01:06:47;86846.03;;;5.08;55.43
8047;BME280;74083;42.516;23.358;2023-12-22T01:09:33;86851.03;;;5.08;55.47
8047;BME280;74083;42.516;23.358;2023-12-22T01:12:20;86840.13;;;5.09;55.55
8047;BME280;74083;42.516;23.358;2023-12-22T01:15:07;86851.72;;;5.10;55.41
8047;BME280;74083;42.516;23.358;2023-12-22T01:17:52;86840.94;;;5.09;55.98
8047;BME280;74083;42.516;23.358;2023-12-22T01:20:38;86835.16;;;5.09;55.77
8047;BME280;74083;42.516;23.358;2023-12-22T01:23:23;86832.88;;;5.06;55.69
8047;BME280;74083;42.516;23.358;2023-12-22T01:26:11;86832.88;;;5.06;55.84
8047;BME280;74083;42.516;23.358;2023-12-22T01:28:57;86838.53;;;5.08;56.21
8047;BME280;74083;42.516;23.358;2023-12-22T01:31:43;86830.28;;;5.07;56.05
8047;BME280;74083;42.516;23.358;2023-12-22T01:34:29;86831.28;;;5.05;55.93
8047;BME280;74083;42.516;23.358;2023-12-22T01:37:14;86840.38;;;5.06;55.97
8047;BME280;74083;42.516;23.358;2023-12-22T01:40:00;86848.75;;;5.05;56.18
8047;BME280;74083;42.516;23.358;2023-12-22T01:42:47;86839.59;;;5.05;56.16
8047;BME280;74083;42.516;23.358;2023-12-22T01:45:34;86838.78;;;5.05;56.36
8047;BME280;74083;42.516;23.358;2023-12-22T01:48:19;86825.41;;;5.06;56.17
8047;BME280;74083;42.516;23.358;2023-12-22T01:51:07;86821.31;;;5.05;56.22
8047;BME280;74083;42.516;23.358;2023-12-22T01:53:53;86818.16;;;5.03;56.15
8047;BME280;74083;42.516;23.358;2023-12-22T01:56:39;86816.69;;;5.00;56.46
8047;BME280;74083;42.516;23.358;2023-12-22T01:59:26;86820.78;;;5.01;56.42
8047;BME280;74083;42.516;23.358;2023-12-22T02:02:15;86825.66;;;5.03;56.84
8047;BME280;74083;42.516;23.358;2023-12-22T02:05:02;86821.56;;;5.02;56.73
8047;BME280;74083;42.516;23.358;2023-12-22T02:07:48;86807.50;;;5.01;56.50
8047;BME280;74083;42.516;23.358;2023-12-22T02:10:34;86813.41;;;5.00;56.59
8047;BME280;74083;42.516;23.358;2023-12-22T02:13:20;86815.00;;;5.01;56.71
8047;BME280;74083;42.516;23.358;2023-12-22T02:16:18;86813.31;;;5.01;56.87
8047;BME280;74083;42.516;23.358;2023-12-22T02:19:14;86805.91;;;5.00;57.38
8047;BME280;74083;42.516;23.358;2023-12-22T02:22:06;86820.91;;;5.00;57.32
8047;BME280;74083;42.516;23.358;2023-12-22T02:24:53;86814.34;;;4.99;57.17
8047;BME280;74083;42.516;23.358;2023-12-22T02:27:44;86811.84;;;4.99;57.21
8047;BME280;74083;42.516;23.358;2023-12-22T02:30:34;86801.06;;;4.98;57.29
8047;BME280;74083;42.516;23.358;2023-12-22T02:33:25;86791.09;;;4.98;57.35
8047;BME280;74083;42.516;23.358;2023-12-22T02:36:15;86791.09;;;4.98;57.51
8047;BME280;74083;42.516;23.358;2023-12-22T02:39:03;86783.28;;;4.92;57.29
8047;BME280;74083;42.516;23.358;2023-12-22T02:41:51;86788.69;;;4.97;57.30
8047;BME280;74083;42.516;23.358;2023-12-22T02:44:38;86790.28;;;4.98;57.58
8047;BME280;74083;42.516;23.358;2023-12-22T02:47:23;86772.81;;;4.98;57.33
8047;BME280;74083;42.516;23.358;2023-12-22T02:50:12;86774.41;;;4.99;57.83
8047;BME280;74083;42.516;23.358;2023-12-22T02:52:58;86772.03;;;4.97;57.53
8047;BME280;74083;42.516;23.358;2023-12-22T02:55:44;86773.88;;;4.95;57.74
8047;BME280;74083;42.516;23.358;2023-12-22T02:58:31;86754.94;;;4.93;57.83
8047;BME280;74083;42.516;23.358;2023-12-22T03:01:17;86757.19;;;4.96;58.23
8047;BME280;74083;42.516;23.358;2023-12-22T03:04:02;86756.63;;;4.92;57.83
8047;BME280;74083;42.516;23.358;2023-12-22T03:06:48;86755.72;;;4.93;58.52
8047;BME280;74083;42.516;23.358;2023-12-22T03:09:34;86755.84;;;4.92;59.03
8047;BME280;74083;42.516;23.358;2023-12-22T03:12:19;86761.50;;;4.94;58.88
8047;BME280;74083;42.516;23.358;2023-12-22T03:15:08;86763.31;;;4.92;59.05
8047;BME280;74083;42.516;23.358;2023-12-22T03:17:54;86745.72;;;4.93;59.68
8047;BME280;74083;42.516;23.358;2023-12-22T03:20:40;86742.56;;;4.91;59.24
8047;BME280;74083;42.516;23.358;2023-12-22T03:23:26;86736.94;;;4.89;59.64
8047;BME280;74083;42.516;23.358;2023-12-22T03:26:12;86728.41;;;4.92;59.77
8047;BME280;74083;42.516;23.358;2023-12-22T03:28:57;86712.78;;;4.90;60.04
8047;BME280;74083;42.516;23.358;2023-12-22T03:31:45;86700.41;;;4.88;60.13
8047;BME280;74083;42.516;23.358;2023-12-22T03:34:31;86700.28;;;4.90;59.84
8047;BME280;74083;42.516;23.358;2023-12-22T03:37:17;86686.88;;;4.91;60.15
8047;BME280;74083;42.516;23.358;2023-12-22T03:40:03;86685.31;;;4.90;60.13
8047;BME280;74083;42.516;23.358;2023-12-22T03:42:49;86683.97;;;4.86;61.08
8047;BME280;74083;42.516;23.358;2023-12-22T03:45:34;86680.59;;;4.87;60.77
8047;BME280;74083;42.516;23.358;2023-12-22T03:48:22;86676.13;;;4.90;60.97
8047;BME280;74083;42.516;23.358;2023-12-22T03:51:07;86668.22;;;4.85;61.12
8047;BME280;74083;42.516;23.358;2023-12-22T03:53:54;86672.41;;;4.85;61.50
8047;BME280;74083;42.516;23.358;2023-12-22T03:56:40;86666.78;;;4.83;61.77
8047;BME280;74083;42.516;23.358;2023-12-22T03:59:26;86673.34;;;4.84;61.78
8047;BME280;74083;42.516;23.358;2023-12-22T04:02:12;86669.16;;;4.84;61.69
8047;BME280;74083;42.516;23.358;2023-12-22T04:04:59;86678.19;;;4.85;61.97
8047;BME280;74083;42.516;23.358;2023-12-22T04:07:44;86680.34;;;4.90;61.77
8047;BME280;74083;42.516;23.358;2023-12-22T04:10:32;86677.94;;;4.88;62.17
8047;BME280;74083;42.516;23.358;2023-12-22T04:13:17;86671.91;;;4.81;62.21
8047;BME280;74083;42.516;23.358;2023-12-22T04:16:04;86681.63;;;4.84;62.55
8047;BME280;74083;42.516;23.358;2023-12-22T04:18:49;86684.88;;;4.85;62.41
8047;BME280;74083;42.516;23.358;2023-12-22T04:21:36;86691.34;;;4.87;62.71
8047;BME280;74083;42.516;23.358;2023-12-22T04:24:22;86702.25;;;4.86;62.69
8047;BME280;74083;42.516;23.358;2023-12-22T04:27:08;86698.03;;;4.87;62.48
8047;BME280;74083;42.516;23.358;2023-12-22T04:29:54;86695.66;;;4.85;62.79
8047;BME280;74083;42.516;23.358;2023-12-22T04:32:40;86689.13;;;4.84;62.96
8047;BME280;74083;42.516;23.358;2023-12-22T04:35:25;86688.97;;;4.86;62.81
8047;BME280;74083;42.516;23.358;2023-12-22T04:38:12;86685.03;;;4.83;63.12
8047;BME280;74083;42.516;23.358;2023-12-22T04:40:58;86692.38;;;4.85;63.20
8047;BME280;74083;42.516;23.358;2023-12-22T04:43:44;86683.97;;;4.86;62.49
8047;BME280;74083;42.516;23.358;2023-12-22T04:46:29;86681.88;;;4.81;62.92
8047;BME280;74083;42.516;23.358;2023-12-22T04:49:15;86683.09;;;4.87;62.70
8047;BME280;74083;42.516;23.358;2023-12-22T04:52:00;86681.34;;;4.87;62.68
8047;BME280;74083;42.516;23.358;2023-12-22T04:54:47;86688.97;;;4.86;63.22
8047;BME280;74083;42.516;23.358;2023-12-22T04:57:33;86675.69;;;4.85;63.09
8047;BME280;74083;42.516;23.358;2023-12-22T05:00:18;86674.00;;;4.86;63.35
8047;BME280;74083;42.516;23.358;2023-12-22T05:03:04;86672.31;;;4.86;63.44
8047;BME280;74083;42.516;23.358;2023-12-22T05:05:50;86674.91;;;4.85;63.37
8047;BME280;74083;42.516;23.358;2023-12-22T05:08:35;86674.91;;;4.85;63.38
8047;BME280;74083;42.516;23.358;2023-12-22T05:11:22;86676.75;;;4.83;63.49
8047;BME280;74083;42.516;23.358;2023-12-22T05:14:08;86670.84;;;4.84;63.71
8047;BME280;74083;42.516;23.358;2023-12-22T05:16:55;86675.03;;;4.83;63.43
8047;BME280;74083;42.516;23.358;2023-12-22T05:19:40;86665.31;;;4.80;63.24
8047;BME280;74083;42.516;23.358;2023-12-22T05:22:26;86668.59;;;4.81;63.88
8047;BME280;74083;42.516;23.358;2023-12-22T05:25:14;86665.19;;;4.82;63.33
8047;BME280;74083;42.516;23.358;2023-12-22T05:28:01;86667.66;;;4.82;63.56
8047;BME280;74083;42.516;23.358;2023-12-22T05:30:46;86667.66;;;4.82;63.55
8047;BME280;74083;42.516;23.358;2023-12-22T05:33:32;86675.84;;;4.84;63.06
8047;BME280;74083;42.516;23.358;2023-12-22T05:36:18;86686.63;;;4.84;63.41
8047;BME280;74083;42.516;23.358;2023-12-22T05:39:04;86693.06;;;4.87;63.36
8047;BME280;74083;42.516;23.358;2023-12-22T05:41:52;86690.72;;;4.95;63.83
8047;BME280;74083;42.516;23.358;2023-12-22T05:44:39;86695.06;;;4.93;64.10
8047;BME280;74083;42.516;23.358;2023-12-22T05:47:25;86690.31;;;4.90;63.52
8047;BME280;74083;42.516;23.358;2023-12-22T05:50:10;86689.78;;;4.86;63.36
8047;BME280;74083;42.516;23.358;2023-12-22T05:52:56;86696.22;;;4.89;63.94
8047;BME280;74083;42.516;23.358;2023-12-22T05:55:41;86699.50;;;4.89;64.01
8047;BME280;74083;42.516;23.358;2023-12-22T05:58:27;86708.69;;;4.89;63.55
8047;BME280;74083;42.516;23.358;2023-12-22T06:01:18;86700.53;;;4.87;63.42
8047;BME280;74083;42.516;23.358;2023-12-22T06:04:04;86696.22;;;4.89;63.29
8047;BME280;74083;42.516;23.358;2023-12-22T06:06:49;86694.50;;;4.89;63.23
8047;BME280;74083;42.516;23.358;2023-12-22T06:09:35;86690.56;;;4.87;63.80
8047;BME280;74083;42.516;23.358;2023-12-22T06:12:20;86688.19;;;4.85;63.78
8047;BME280;74083;42.516;23.358;2023-12-22T06:15:06;86686.63;;;4.84;63.16
8047;BME280;74083;42.516;23.358;2023-12-22T06:17:54;86680.84;;;4.84;63.10
8047;BME280;74083;42.516;23.358;2023-12-22T06:20:40;86683.31;;;4.84;63.04
8047;BME280;74083;42.516;23.358;2023-12-22T06:23:25;86691.34;;;4.87;63.84
8047;BME280;74083;42.516;23.358;2023-12-22T06:26:11;86696.31;;;4.87;63.11
8047;BME280;74083;42.516;23.358;2023-12-22T06:28:57;86696.88;;;4.91;63.88
8047;BME280;74083;42.516;23.358;2023-12-22T06:31:43;86706.59;;;4.94;63.45
8047;BME280;74083;42.516;23.358;2023-12-22T06:34:29;86713.44;;;4.92;63.80
8047;BME280;74083;42.516;23.358;2023-12-22T06:37:16;86702.91;;;4.88;63.32
8047;BME280;74083;42.516;23.358;2023-12-22T06:40:02;86696.88;;;4.91;63.39
8047;BME280;74083;42.516;23.358;2023-12-22T06:42:48;86708.06;;;4.96;64.01
8047;BME280;74083;42.516;23.358;2023-12-22T06:45:33;86709.78;;;4.96;63.90
8047;BME280;74083;42.516;23.358;2023-12-22T06:48:19;86712.16;;;4.97;64.13
8047;BME280;74083;42.516;23.358;2023-12-22T06:51:06;86698.47;;;4.92;64.04
8047;BME280;74083;42.516;23.358;2023-12-22T06:53:52;86708.78;;;4.87;64.23
8047;BME280;74083;42.516;23.358;2023-12-22T06:56:38;86708.19;;;4.95;63.91
8047;BME280;74083;42.516;23.358;2023-12-22T06:59:24;86704.78;;;4.96;64.09
8047;BME280;74083;42.516;23.358;2023-12-22T07:02:10;86711.03;;;4.90;64.64
8047;BME280;74083;42.516;23.358;2023-12-22T07:05:05;86715.50;;;4.87;64.84
8047;BME280;74083;42.516;23.358;2023-12-22T07:08:10;86708.78;;;4.87;64.56
8047;BME280;74083;42.516;23.358;2023-12-22T07:10:56;86703.53;;;4.81;64.51
8047;BME280;74083;42.516;23.358;2023-12-22T07:13:42;86717.03;;;4.78;64.64
8047;BME280;74083;42.516;23.358;2023-12-22T07:16:28;86716.25;;;4.78;64.88
8047;BME280;74083;42.516;23.358;2023-12-22T07:19:13;86715.44;;;4.77;64.47
8047;BME280;74083;42.516;23.358;2023-12-22T07:21:59;86725.44;;;4.77;64.53
8047;BME280;74083;42.516;23.358;2023-12-22T07:24:48;86722.44;;;4.83;65.24
8047;BME280;74083;42.516;23.358;2023-12-22T07:27:33;86724.63;;;4.77;65.31
8047;BME280;74083;42.516;23.358;2023-12-22T07:30:19;86716.50;;;4.75;65.17
8047;BME280;74083;42.516;23.358;2023-12-22T07:33:05;86724.88;;;4.74;64.88
8047;BME280;74083;42.516;23.358;2023-12-22T07:35:51;86728.97;;;4.75;64.91
8047;BME280;74083;42.516;23.358;2023-12-22T07:38:37;86734.84;;;4.74;65.17
8047;BME280;74083;42.516;23.358;2023-12-22T07:41:25;86729.88;;;4.74;65.09
8047;BME280;74083;42.516;23.358;2023-12-22T07:44:11;86730.09;;;4.71;65.58
8047;BME280;74083;42.516;23.358;2023-12-22T07:46:57;86742.47;;;4.72;65.24
8047;BME280;74083;42.516;23.358;2023-12-22T07:49:43;86735.09;;;4.71;65.70
8047;BME280;74083;42.516;23.358;2023-12-22T07:52:29;86743.47;;;4.70;65.66
8047;BME280;74083;42.516;23.358;2023-12-22T07:55:15;86746.78;;;4.70;65.33
8047;BME280;74083;42.516;23.358;2023-12-22T07:58:02;86756.75;;;4.70;65.44
8047;BME280;74083;42.516;23.358;2023-12-22T08:00:48;86761.63;;;4.72;65.51
8047;BME280;74083;42.516;23.358;2023-12-22T08:03:34;86765.81;;;4.71;66.20
8047;BME280;74083;42.516;23.358;2023-12-22T08:06:19;86765.03;;;4.71;65.53
8047;BME280;74083;42.516;23.358;2023-12-22T08:09:05;86769.22;;;4.70;65.82
8047;BME280;74083;42.516;23.358;2023-12-22T08:11:50;86760.41;;;4.66;65.85
8047;BME280;74083;42.516;23.358;2023-12-22T08:14:38;86763.69;;;4.67;66.26
8047;BME280;74083;42.516;23.358;2023-12-22T08:17:24;86763.69;;;4.67;65.99
8047;BME280;74083;42.516;23.358;2023-12-22T08:20:11;86764.47;;;4.67;66.17
8047;BME280;74083;42.516;23.358;2023-12-22T08:22:56;86771.28;;;4.65;66.30
8047;BME280;74083;42.516;23.358;2023-12-22T08:25:42;86771.28;;;4.65;65.98
8047;BME280;74083;42.516;23.358;2023-12-22T08:28:28;86770.50;;;4.65;66.23
8047;BME280;74083;42.516;23.358;2023-12-22T08:31:15;86779.66;;;4.64;66.00
8047;BME280;74083;42.516;23.358;2023-12-22T08:34:01;86788.09;;;4.63;66.21
8047;BME280;74083;42.516;23.358;2023-12-22T08:36:46;86787.28;;;4.63;66.18
8047;BME280;74083;42.516;23.358;2023-12-22T08:39:32;86794.53;;;4.66;66.38
8047;BME280;74083;42.516;23.358;2023-12-22T08:42:18;86784.78;;;4.63;66.56
8047;BME280;74083;42.516;23.358;2023-12-22T08:45:04;86792.28;;;4.63;66.35
8047;BME280;74083;42.516;23.358;2023-12-22T08:47:52;86779.13;;;4.61;66.53
8047;BME280;74083;42.516;23.358;2023-12-22T08:50:37;86785.69;;;4.62;66.37
8047;BME280;74083;42.516;23.358;2023-12-22T08:53:23;86780.72;;;4.62;66.27
8047;BME280;74083;42.516;23.358;2023-12-22T08:56:10;86778.22;;;4.62;66.63
8047;BME280;74083;42.516;23.358;2023-12-22T08:58:55;86773.22;;;4.62;66.25
8047;BME280;74083;42.516;23.358;2023-12-22T09:01:43;86773.22;;;4.62;66.22
8047;BME280;74083;42.516;23.358;2023-12-22T09:04:31;86775.47;;;4.65;66.49
8047;BME280;74083;42.516;23.358;2023-12-22T09:07:16;86770.19;;;4.58;66.80
8047;BME280;74083;42.516;23.358;2023-12-22T09:10:04;86766.91;;;4.58;66.28
8047;BME280;74083;42.516;23.358;2023-12-22T09:12:50;86779.13;;;4.61;66.88
8047;BME280;74083;42.516;23.358;2023-12-22T09:15:35;86789.34;;;4.58;66.99
8047;BME280;74083;42.516;23.358;2023-12-22T09:18:21;86790.81;;;4.60;66.92
8047;BME280;74083;42.516;23.358;2023-12-22T09:21:09;86785.13;;;4.58;66.70
8047;BME280;74083;42.516;23.358;2023-12-22T09:23:55;86788.66;;;4.56;66.82
8047;BME280;74083;42.516;23.358;2023-12-22T09:26:41;86787.75;;;4.57;67.00
8047;BME280;74083;42.516;23.358;2023-12-22T09:29:27;86786.41;;;4.52;67.06
8047;BME280;74083;42.516;23.358;2023-12-22T09:32:12;86793.00;;;4.53;67.43
8047;BME280;74083;42.516;23.358;2023-12-22T09:34:58;86787.34;;;4.51;67.50
8047;BME280;74083;42.516;23.358;2023-12-22T09:37:46;86793.00;;;4.53;67.28
8047;BME280;74083;42.516;23.358;2023-12-22T09:40:32;86796.16;;;4.56;66.65
8047;BME280;74083;42.516;23.358;2023-12-22T09:43:19;86797.84;;;4.55;66.79
8047;BME280;74083;42.516;23.358;2023-12-22T09:46:06;86797.75;;;4.57;66.53
8047;BME280;74083;42.516;23.358;2023-12-22T09:48:53;86797.75;;;4.57;66.69
8047;BME280;74083;42.516;23.358;2023-12-22T09:51:40;86794.34;;;4.58;66.90
8047;BME280;74083;42.516;23.358;2023-12-22T09:54:29;86804.31;;;4.58;66.75
8047;BME280;74083;42.516;23.358;2023-12-22T09:57:15;86804.19;;;4.59;66.31
8047;BME280;74083;42.516;23.358;2023-12-22T10:00:02;86809.06;;;4.61;66.29
8047;BME280;74083;42.516;23.358;2023-12-22T10:02:50;86809.72;;;4.63;66.61
8047;BME280;74083;42.516;23.358;2023-12-22T10:05:36;86803.03;;;4.63;67.01
8047;BME280;74083;42.516;23.358;2023-12-22T10:08:23;86798.06;;;4.63;67.33
8047;BME280;74083;42.516;23.358;2023-12-22T10:11:11;86780.47;;;4.65;67.18
8047;BME280;74083;42.516;23.358;2023-12-22T10:13:57;86770.50;;;4.65;66.76
8047;BME280;74083;42.516;23.358;2023-12-22T10:16:42;86772.19;;;4.64;66.87
8047;BME280;74083;42.516;23.358;2023-12-22T10:19:28;86768.00;;;4.65;67.08
8047;BME280;74083;42.516;23.358;2023-12-22T10:22:13;86775.47;;;4.65;66.86
8047;BME280;74083;42.516;23.358;2023-12-22T10:24:59;86765.41;;;4.66;66.97
8047;BME280;74083;42.516;23.358;2023-12-22T10:27:45;86763.00;;;4.65;65.92
8047;BME280;74083;42.516;23.358;2023-12-22T10:30:31;86746.47;;;4.64;66.33
8047;BME280;74083;42.516;23.358;2023-12-22T10:33:18;86736.63;;;4.62;66.40
8047;BME280;74083;42.516;23.358;2023-12-22T10:36:04;86744.88;;;4.63;66.75
8047;BME280;74083;42.516;23.358;2023-12-22T10:38:50;86740.56;;;4.65;67.30
8047;BME280;74083;42.516;23.358;2023-12-22T10:41:36;86749.25;;;4.70;66.93
8047;BME280;74083;42.516;23.358;2023-12-22T10:44:25;86738.75;;;4.67;67.13
8047;BME280;74083;42.516;23.358;2023-12-22T10:47:11;86733.78;;;4.67;67.02
8047;BME280;74083;42.516;23.358;2023-12-22T10:49:56;86738.06;;;4.65;67.49
8047;BME280;74083;42.516;23.358;2023-12-22T10:52:49;86729.78;;;4.64;67.42
8047;BME280;74083;42.516;23.358;2023-12-22T10:55:34;86724.94;;;4.63;67.16
8047;BME280;74083;42.516;23.358;2023-12-22T10:58:21;86721.78;;;4.61;67.26
8047;BME280;74083;42.516;23.358;2023-12-22T11:01:09;86721.00;;;4.60;66.97
8047;BME280;74083;42.516;23.358;2023-12-22T11:04:01;86722.44;;;4.63;67.30
8047;BME280;74083;42.516;23.358;2023-12-22T11:06:49;86701.69;;;4.62;66.88
8047;BME280;74083;42.516;23.358;2023-12-22T11:09:35;86691.72;;;4.62;66.79
8047;BME280;74083;42.516;23.358;2023-12-22T11:12:23;86672.56;;;4.63;66.45
8047;BME280;74083;42.516;23.358;2023-12-22T11:15:11;86681.19;;;4.59;67.31
8047;BME280;74083;42.516;23.358;2023-12-22T11:17:59;86695.25;;;4.60;66.58
8047;BME280;74083;42.516;23.358;2023-12-22T11:20:47;86679.91;;;4.64;66.82
8047;BME280;74083;42.516;23.358;2023-12-22T11:23:35;86674.41;;;4.61;66.82
8047;BME280;74083;42.516;23.358;2023-12-22T11:26:23;86679.41;;;4.61;66.91
8047;BME280;74083;42.516;23.358;2023-12-22T11:29:10;86655.47;;;4.58;67.34
8047;BME280;74083;42.516;23.358;2023-12-22T11:31:58;86674.66;;;4.58;66.76
8047;BME280;74083;42.516;23.358;2023-12-22T11:34:48;86663.75;;;4.59;66.93
8047;BME280;74083;42.516;23.358;2023-12-22T11:37:35;86660.44;;;4.58;67.15
8047;BME280;74083;42.516;23.358;2023-12-22T11:40:21;86691.97;;;4.59;66.77
8047;BME280;74083;42.516;23.358;2023-12-22T11:43:07;86696.16;;;4.59;67.42
8047;BME280;74083;42.516;23.358;2023-12-22T11:45:54;86702.97;;;4.57;67.54
8047;BME280;74083;42.516;23.358;2023-12-22T11:48:47;86708.75;;;4.57;67.65
8047;BME280;74083;42.516;23.358;2023-12-22T11:51:34;86703.63;;;4.59;67.27
8047;BME280;74083;42.516;23.358;2023-12-22T11:54:48;86725.03;;;4.61;67.49
8047;BME280;74083;42.516;23.358;2023-12-22T11:57:36;86739.25;;;4.61;68.03
8047;BME280;74083;42.516;23.358;2023-12-22T12:00:40;86732.19;;;4.66;67.58
8047;BME280;74083;42.516;23.358;2023-12-22T12:03:26;86732.44;;;4.63;67.87
8047;BME280;74083;42.516;23.358;2023-12-22T12:06:21;86737.66;;;4.60;67.14
8047;BME280;74083;42.516;23.358;2023-12-22T12:09:10;86745.13;;;4.60;67.58
8047;BME280;74083;42.516;23.358;2023-12-22T12:12:11;86755.91;;;4.60;67.45
8047;BME280;74083;42.516;23.358;2023-12-22T12:15:10;86759.28;;;4.59;67.61
8047;BME280;74083;42.516;23.358;2023-12-22T12:17:56;86752.63;;;4.60;67.35
8047;BME280;74083;42.516;23.358;2023-12-22T12:20:41;86733.47;;;4.60;67.55
8047;BME280;74083;42.516;23.358;2023-12-22T12:23:27;86758.41;;;4.60;68.12
8047;BME280;74083;42.516;23.358;2023-12-22T12:26:14;86739.09;;;4.62;67.60
8047;BME280;74083;42.516;23.358;2023-12-22T12:29:01;86745.78;;;4.62;67.85
8047;BME280;74083;42.516;23.358;2023-12-22T12:31:47;86750.78;;;4.62;68.10
8047;BME280;74083;42.516;23.358;2023-12-22T12:34:33;86745.00;;;4.61;67.85
8047;BME280;74083;42.516;23.358;2023-12-22T12:37:21;86723.34;;;4.62;67.37
8047;BME280;74083;42.516;23.358;2023-12-22T12:40:08;86731.53;;;4.64;67.59
8047;BME280;74083;42.516;23.358;2023-12-22T12:42:55;86725.19;;;4.60;67.60
8047;BME280;74083;42.516;23.358;2023-12-22T12:45:41;86728.47;;;4.60;67.95
8047;BME280;74083;42.516;23.358;2023-12-22T12:48:27;86716.81;;;4.61;67.81
8047;BME280;74083;42.516;23.358;2023-12-22T12:51:13;86699.44;;;4.59;67.72
8047;BME280;74083;42.516;23.358;2023-12-22T12:53:58;86704.44;;;4.59;67.37
8047;BME280;74083;42.516;23.358;2023-12-22T12:56:45;86694.22;;;4.62;67.32
8047;BME280;74083;42.516;23.358;2023-12-22T12:59:33;86698.41;;;4.62;67.59
8047;BME280;74083;42.516;23.358;2023-12-22T13:02:19;86692.53;;;4.63;67.37
8047;BME280;74083;42.516;23.358;2023-12-22T13:05:07;86715.06;;;4.61;67.25
8047;BME280;74083;42.516;23.358;2023-12-22T13:08:06;86700.91;;;4.62;67.01
8047;BME280;74083;42.516;23.358;2023-12-22T13:10:59;86711.03;;;4.60;67.62
8047;BME280;74083;42.516;23.358;2023-12-22T13:13:45;86740.16;;;4.60;67.61
8047;BME280;74083;42.516;23.358;2023-12-22T13:16:32;86746.84;;;4.59;67.63
8047;BME280;74083;42.516;23.358;2023-12-22T13:19:18;86774.16;;;4.61;67.23
8047;BME280;74083;42.516;23.358;2023-12-22T13:22:04;86780.94;;;4.59;67.92
8047;BME280;74083;42.516;23.358;2023-12-22T13:24:58;86749.31;;;4.59;67.27
8047;BME280;74083;42.516;23.358;2023-12-22T13:27:45;86768.59;;;4.57;67.58
8047;BME280;74083;42.516;23.358;2023-12-22T13:30:34;86773.13;;;4.63;67.28
8047;BME280;74083;42.516;23.358;2023-12-22T13:33:23;86776.75;;;4.59;67.87
8047;BME280;74083;42.516;23.358;2023-12-22T13:36:13;86778.44;;;4.59;67.56
8047;BME280;74083;42.516;23.358;2023-12-22T13:38:59;86787.53;;;4.60;67.55
8047;BME280;74083;42.516;23.358;2023-12-22T13:41:45;86794.22;;;4.59;67.50
8047;BME280;74083;42.516;23.358;2023-12-22T13:44:31;86825.03;;;4.58;67.73
8047;BME280;74083;42.516;23.358;2023-12-22T13:47:16;86851.00;;;4.56;67.35
8047;BME280;74083;42.516;23.358;2023-12-22T13:50:13;86864.41;;;4.55;67.02
8047;BME280;74083;42.516;23.358;2023-12-22T13:53:07;86874.16;;;4.58;66.86
8047;BME280;74083;42.516;23.358;2023-12-22T13:55:56;86857.59;;;4.57;67.03
8047;BME280;74083;42.516;23.358;2023-12-22T13:58:45;86870.72;;;4.59;66.77
8047;BME280;74083;42.516;23.358;2023-12-22T14:01:30;86877.19;;;4.50;66.58
8047;BME280;74083;42.516;23.358;2023-12-22T14:04:16;86902.47;;;4.57;66.38
8047;BME280;74083;42.516;23.358;2023-12-22T14:07:03;86909.28;;;4.55;66.41
8047;BME280;74083;42.516;23.358;2023-12-22T14:09:49;86930.69;;;4.57;66.30
8047;BME280;74083;42.516;23.358;2023-12-22T14:12:35;86931.97;;;4.51;65.71
8047;BME280;74083;42.516;23.358;2023-12-22T14:15:22;86934.44;;;4.51;65.69
8047;BME280;74083;42.516;23.358;2023-12-22T14:18:07;86929.47;;;4.51;65.47
8047;BME280;74083;42.516;23.358;2023-12-22T14:20:53;86924.47;;;4.51;65.75
8047;BME280;74083;42.516;23.358;2023-12-22T14:23:40;86912.25;;;4.48;65.18
8047;BME280;74083;42.516;23.358;2023-12-22T14:26:26;86894.78;;;4.48;65.47
8047;BME280;74083;42.516;23.358;2023-12-22T14:29:12;86899.78;;;4.48;65.73
8047;BME280;74083;42.516;23.358;2023-12-22T14:31:57;86918.03;;;4.49;65.79
8047;BME280;74083;42.516;23.358;2023-12-22T14:34:42;86926.41;;;4.48;65.63
8047;BME280;74083;42.516;23.358;2023-12-22T14:37:29;86895.59;;;4.49;65.43
8047;BME280;74083;42.516;23.358;2023-12-22T14:40:16;86898.19;;;4.47;65.44
8047;BME280;74083;42.516;23.358;2023-12-22T14:43:02;86910.66;;;4.47;65.29
8047;BME280;74083;42.516;23.358;2023-12-22T14:45:47;86916.44;;;4.48;65.15
8047;BME280;74083;42.516;23.358;2023-12-22T14:48:33;86940.56;;;4.47;65.12
8047;BME280;74083;42.516;23.358;2023-12-22T14:51:18;86924.81;;;4.47;64.99
8047;BME280;74083;42.516;23.358;2023-12-22T14:54:04;86934.13;;;4.45;65.33